createdAt,value
2018-12-05T00:01:31.613Z,83.71
2018-12-05T00:04:01.124Z,83.59
2018-12-05T00:06:30.402Z,83.40
2018-12-05T00:09:00.111Z,83.83
2018-12-05T00:11:29.529Z,83.26
2018-12-05T00:13:58.824Z,83.93
2018-12-05T00:16:28.235Z,83.45
2018-12-05T00:18:57.731Z,83.72
2018-12-05T00:21:27.371Z,83.76
2018-12-05T00:23:57.155Z,83.60
2018-12-05T00:26:26.565Z,82.92
2018-12-05T00:28:56.176Z,83.29
2018-12-05T00:31:25.778Z,83.20
2018-12-05T00:33:55.464Z,82.94
2018-12-05T00:36:24.880Z,83.29
2018-12-05T00:38:54.215Z,83.11
2018-12-05T00:41:23.572Z,83.23
2018-12-05T00:43:53.060Z,83.72
2018-12-05T00:46:22.434Z,83.19
2018-12-05T00:48:51.997Z,83.96
2018-12-05T00:51:22.018Z,83.24
2018-12-05T00:53:51.401Z,83.34
2018-12-05T00:56:20.722Z,82.85
2018-12-05T00:58:51.084Z,82.77
2018-12-05T01:01:20.834Z,82.02
2018-12-05T01:03:50.272Z,82.96
2018-12-05T01:06:19.705Z,83.26
2018-12-05T01:08:49.307Z,83.27
2018-12-05T01:11:18.832Z,83.85
2018-12-05T01:13:48.390Z,83.42
2018-12-05T01:16:17.691Z,84.05
2018-12-05T01:18:47.196Z,84.34
2018-12-05T01:21:16.451Z,84.62
2018-12-05T01:23:46.037Z,84.38
2018-12-05T01:26:15.423Z,84.37
2018-12-05T01:28:44.860Z,84.94
2018-12-05T01:31:14.347Z,84.70
2018-12-05T01:33:43.895Z,84.96
2018-12-05T01:36:13.678Z,84.84
2018-12-05T01:38:43.118Z,84.22
2018-12-05T01:41:12.642Z,83.96
2018-12-05T01:43:47.922Z,84.67
2018-12-05T01:46:24.423Z,83.89
2018-12-05T01:48:54.143Z,84.21
2018-12-05T01:51:23.587Z,84.47
2018-12-05T01:53:53.124Z,85.27
2018-12-05T01:56:22.523Z,84.87
2018-12-05T01:58:51.983Z,84.08
2018-12-05T02:01:21.771Z,84.61
2018-12-05T02:03:51.232Z,84.61
2018-12-05T02:06:20.848Z,84.31
2018-12-05T02:08:50.479Z,84.74
2018-12-05T02:11:20.990Z,85.22
2018-12-05T02:13:51.073Z,84.24
2018-12-05T02:16:21.478Z,84.29
2018-12-05T02:18:51.368Z,84.94
2018-12-05T02:21:20.987Z,85.10
2018-12-05T02:23:51.185Z,84.81
2018-12-05T02:26:21.427Z,84.97
2018-12-05T02:28:50.890Z,85.33
2018-12-05T02:31:21.399Z,84.95
2018-12-05T02:33:52.768Z,85.07
2018-12-05T02:36:25.584Z,84.99
2018-12-05T02:38:56.016Z,85.30
2018-12-05T02:41:25.439Z,84.95
2018-12-05T02:43:57.529Z,84.71
2018-12-05T02:46:27.102Z,84.57
2018-12-05T02:48:56.562Z,84.78
2018-12-05T02:51:25.990Z,84.66
2018-12-05T02:53:55.796Z,84.91
2018-12-05T02:56:25.286Z,84.81
2018-12-05T02:58:54.770Z,84.67
2018-12-05T03:01:24.793Z,84.93
2018-12-05T03:03:54.966Z,85.27
2018-12-05T03:06:24.663Z,85.29
2018-12-05T03:08:53.936Z,85.19
2018-12-05T03:11:23.409Z,84.71
2018-12-05T03:13:53.134Z,85.07
2018-12-05T03:16:22.466Z,84.52
2018-12-05T03:18:53.412Z,85.13
2018-12-05T03:21:24.941Z,85.17
2018-12-05T03:23:55.239Z,84.50
2018-12-05T03:26:24.756Z,84.97
2018-12-05T03:28:54.106Z,84.23
2018-12-05T03:31:23.461Z,84.81
2018-12-05T03:33:52.980Z,84.51
2018-12-05T03:36:22.821Z,84.51
2018-12-05T03:38:56.701Z,84.09
2018-12-05T03:41:26.523Z,84.35
2018-12-05T03:43:56.836Z,83.31
2018-12-05T03:46:26.228Z,83.71
2018-12-05T03:48:55.531Z,84.02
2018-12-05T03:51:25.255Z,84.52
2018-12-05T03:53:54.554Z,85.12
2018-12-05T03:56:23.904Z,84.92
2018-12-05T03:58:53.165Z,85.06
2018-12-05T04:01:22.580Z,84.68
2018-12-05T04:03:51.963Z,85.18
2018-12-05T04:06:21.558Z,85.25
2018-12-05T04:08:50.866Z,84.56
2018-12-05T04:11:20.269Z,84.61
2018-12-05T04:13:49.787Z,85.00
2018-12-05T04:16:19.070Z,85.36
2018-12-05T04:18:48.861Z,85.62
2018-12-05T04:21:18.315Z,85.51
2018-12-05T04:23:47.668Z,85.28
2018-12-05T04:26:17.094Z,86.19
2018-12-05T04:28:46.599Z,85.24
2018-12-05T04:31:16.454Z,85.62
2018-12-05T04:33:45.916Z,85.20
2018-12-05T04:36:15.557Z,85.10
2018-12-05T04:38:45.062Z,85.00
2018-12-05T04:41:14.441Z,83.97
2018-12-05T04:43:43.876Z,84.89
2018-12-05T04:46:13.151Z,85.49
2018-12-05T04:48:42.549Z,85.49
2018-12-05T04:51:12.149Z,85.73
2018-12-05T04:53:41.772Z,85.04
2018-12-05T04:56:11.446Z,85.39
2018-12-05T04:58:40.834Z,85.17
2018-12-05T05:01:10.116Z,85.20
2018-12-05T05:03:39.428Z,85.35
2018-12-05T05:06:08.855Z,85.89
2018-12-05T05:08:38.424Z,85.52
2018-12-05T05:11:07.799Z,85.50
2018-12-05T05:13:37.428Z,86.28
2018-12-05T05:16:06.900Z,85.43
2018-12-05T05:18:36.382Z,86.16
2018-12-05T05:21:05.948Z,85.53
2018-12-05T05:23:35.428Z,86.01
2018-12-05T05:26:06.128Z,85.52
2018-12-05T05:28:35.391Z,85.55
2018-12-05T05:31:04.665Z,86.13
2018-12-05T05:33:34.312Z,85.24
2018-12-05T05:36:03.743Z,85.17
2018-12-05T05:38:33.080Z,86.05
2018-12-05T05:41:02.484Z,85.83
2018-12-05T05:43:31.979Z,85.49
2018-12-05T05:46:02.034Z,84.82
2018-12-05T05:48:31.518Z,84.52
2018-12-05T05:51:01.019Z,85.53
2018-12-05T05:53:30.410Z,86.59
2018-12-05T05:55:59.693Z,87.55
2018-12-05T05:58:29.501Z,87.57
2018-12-05T06:00:59.089Z,88.20
2018-12-05T06:03:28.396Z,88.09
2018-12-05T06:05:57.698Z,86.48
2018-12-05T06:08:27.163Z,86.80
2018-12-05T06:10:56.782Z,86.18
2018-12-05T06:13:26.201Z,85.73
2018-12-05T06:15:55.933Z,85.38
2018-12-05T06:18:25.623Z,84.16
2018-12-05T06:20:55.321Z,83.80
2018-12-05T06:23:25.122Z,83.04
2018-12-05T06:25:55.044Z,82.72
2018-12-05T06:28:24.659Z,82.07
2018-12-05T06:30:54.128Z,81.73
2018-12-05T06:33:23.856Z,80.52
2018-12-05T06:35:53.729Z,79.96
2018-12-05T06:38:23.435Z,80.49
2018-12-05T06:40:52.975Z,79.09
2018-12-05T06:43:22.479Z,78.45
2018-12-05T06:45:51.995Z,78.88
2018-12-05T06:48:21.728Z,78.52
2018-12-05T06:50:51.215Z,77.02
2018-12-05T06:53:20.682Z,77.10
2018-12-05T06:55:50.116Z,75.56
2018-12-05T06:58:19.832Z,76.46
2018-12-05T07:07:36.990Z,74.35
2018-12-05T07:10:06.621Z,74.86
2018-12-05T07:12:36.413Z,74.10
2018-12-05T07:15:06.211Z,74.35
2018-12-05T07:17:35.616Z,74.12
2018-12-05T07:20:06.056Z,73.78
2018-12-05T07:22:35.791Z,73.47
2018-12-05T07:25:05.723Z,72.82
2018-12-05T07:27:35.353Z,73.60
2018-12-05T07:30:20.849Z,73.04
2018-12-05T07:32:51.607Z,72.39
2018-12-05T07:35:21.896Z,71.24
2018-12-05T07:37:53.483Z,71.19
2018-12-05T07:40:24.432Z,70.55
2018-12-05T07:42:54.062Z,70.46
2018-12-05T07:45:24.438Z,69.43
2018-12-05T07:47:54.952Z,69.67
2018-12-05T07:50:25.871Z,68.74
2018-12-05T07:52:56.715Z,68.84
2018-12-05T07:55:27.219Z,69.05
2018-12-05T07:57:57.371Z,68.66
2018-12-05T08:00:27.447Z,68.45
2018-12-05T08:02:57.309Z,68.36
2018-12-05T08:05:27.062Z,68.00
2018-12-05T08:07:56.765Z,67.43
2018-12-05T08:10:26.476Z,67.06
2018-12-05T08:12:56.004Z,66.83
2018-12-05T08:15:25.373Z,65.58
2018-12-05T08:17:55.208Z,64.95
2018-12-05T08:20:25.000Z,64.09
2018-12-05T08:22:54.613Z,63.64
2018-12-05T08:25:24.353Z,62.87
2018-12-05T08:27:53.959Z,62.72
2018-12-05T08:30:23.379Z,61.73
2018-12-05T08:32:53.462Z,62.57
2018-12-05T08:35:23.129Z,63.14
2018-12-05T08:37:52.897Z,63.24
2018-12-05T08:40:22.230Z,64.06
2018-12-05T08:42:52.038Z,63.16
2018-12-05T08:45:21.495Z,62.91
2018-12-05T08:47:50.903Z,62.08
2018-12-05T08:50:20.547Z,61.30
2018-12-05T08:52:50.011Z,60.53
2018-12-05T08:55:19.328Z,60.36
2018-12-05T08:57:49.324Z,60.30
2018-12-05T09:00:18.971Z,59.92
2018-12-05T09:02:49.379Z,58.50
2018-12-05T09:05:20.177Z,57.07
2018-12-05T09:07:49.787Z,58.82
2018-12-05T09:10:19.373Z,59.23
2018-12-05T09:12:48.896Z,59.89
2018-12-05T09:15:18.356Z,59.40
2018-12-05T09:17:47.736Z,59.69
2018-12-05T09:20:17.594Z,58.91
2018-12-05T09:22:47.056Z,59.24
2018-12-05T09:25:16.631Z,58.68
2018-12-05T09:27:46.475Z,59.63
2018-12-05T09:30:16.698Z,58.77
2018-12-05T09:32:46.308Z,59.80
2018-12-05T09:35:15.911Z,59.84
2018-12-05T09:37:45.165Z,60.78
2018-12-05T09:40:14.624Z,61.15
2018-12-05T09:42:44.157Z,61.49
2018-12-05T09:45:14.986Z,61.15
2018-12-05T09:47:44.479Z,62.17
2018-12-05T09:50:13.807Z,62.45
2018-12-05T09:52:43.392Z,61.64
2018-12-05T09:55:12.670Z,61.62
2018-12-05T09:57:42.232Z,62.18
2018-12-05T10:00:11.949Z,62.55
2018-12-05T10:02:41.510Z,62.95
2018-12-05T10:05:11.273Z,62.96
2018-12-05T10:07:43.321Z,62.82
2018-12-05T10:10:13.432Z,63.90
2018-12-05T10:12:43.079Z,63.75
2018-12-05T10:15:14.346Z,63.69
2018-12-05T10:17:47.764Z,63.89
2018-12-05T10:20:17.517Z,64.26
2018-12-05T10:22:47.035Z,64.19
2018-12-05T10:25:16.861Z,64.93
2018-12-05T10:27:47.013Z,64.70
2018-12-05T10:30:16.638Z,65.13
2018-12-05T10:32:46.894Z,64.64
2018-12-05T10:35:16.198Z,65.58
2018-12-05T10:37:45.773Z,65.12
2018-12-05T10:40:15.290Z,66.09
2018-12-05T10:42:46.051Z,65.75
2018-12-05T10:45:15.553Z,65.94
2018-12-05T10:47:44.996Z,65.42
2018-12-05T10:50:15.247Z,65.05
2018-12-05T10:52:44.824Z,65.53
2018-12-05T10:55:14.317Z,66.02
2018-12-05T10:57:44.333Z,65.83
2018-12-05T11:00:21.095Z,66.06
2018-12-05T11:02:56.199Z,65.56
2018-12-05T11:05:30.030Z,65.90
2018-12-05T11:08:04.857Z,65.72
2018-12-05T11:10:39.389Z,64.88
2018-12-05T11:13:14.150Z,65.72
2018-12-05T11:15:48.844Z,65.12
2018-12-05T11:18:23.854Z,65.99
2018-12-05T11:20:58.333Z,65.89
2018-12-05T11:23:33.695Z,65.57
2018-12-05T11:26:07.215Z,65.38
2018-12-05T11:28:37.314Z,64.65
2018-12-05T11:31:06.614Z,64.81
2018-12-05T11:33:36.418Z,65.61
2018-12-05T11:36:05.991Z,65.40
2018-12-05T11:38:35.470Z,65.37
2018-12-05T11:41:04.871Z,65.04
2018-12-05T11:43:34.568Z,65.30
2018-12-05T11:46:04.005Z,65.55
2018-12-05T11:48:33.442Z,65.58
2018-12-05T11:51:03.018Z,65.57
2018-12-05T11:53:32.469Z,65.74
2018-12-05T11:56:01.871Z,65.67
2018-12-05T11:58:31.813Z,66.32
2018-12-05T12:01:01.843Z,66.53
2018-12-05T12:03:31.538Z,66.02
2018-12-05T12:06:01.036Z,66.51
2018-12-05T12:08:30.613Z,66.23
2018-12-05T12:11:00.406Z,66.28
2018-12-05T12:13:29.722Z,65.71
2018-12-05T12:15:59.122Z,66.35
2018-12-05T12:18:29.020Z,65.65
2018-12-05T12:20:58.917Z,65.42
2018-12-05T12:23:28.874Z,65.41
2018-12-05T12:25:58.560Z,65.91
2018-12-05T12:28:28.463Z,65.59
2018-12-05T12:30:57.991Z,64.61
2018-12-05T12:33:27.759Z,65.44
2018-12-05T12:35:58.341Z,65.24
2018-12-05T12:38:28.946Z,65.18
2018-12-05T12:40:58.592Z,65.32
2018-12-05T12:43:28.400Z,64.73
2018-12-05T12:45:58.175Z,64.80
2018-12-05T12:48:27.541Z,64.71
2018-12-05T12:50:57.270Z,64.56
2018-12-05T12:53:26.532Z,65.67
2018-12-05T12:55:56.183Z,65.67
2018-12-05T12:58:25.845Z,65.41
2018-12-05T13:00:55.451Z,65.58
2018-12-05T13:03:25.289Z,65.10
2018-12-05T13:05:54.688Z,65.53
2018-12-05T13:08:23.948Z,65.50
2018-12-05T13:10:53.574Z,65.23
2018-12-05T13:13:23.119Z,65.40
2018-12-05T13:15:52.803Z,64.68
2018-12-05T13:18:22.173Z,64.60
2018-12-05T13:20:52.043Z,65.61
2018-12-05T13:23:21.596Z,64.76
2018-12-05T13:25:51.401Z,65.26
2018-12-05T13:28:21.324Z,65.13
2018-12-05T13:30:50.903Z,65.25
2018-12-05T13:33:20.361Z,65.82
2018-12-05T13:35:52.262Z,65.96
2018-12-05T13:38:21.774Z,65.93
2018-12-05T13:40:51.334Z,65.56
2018-12-05T13:43:20.983Z,65.89
2018-12-05T13:45:50.677Z,65.71
2018-12-05T13:48:20.203Z,65.09
2018-12-05T13:50:50.323Z,65.30
2018-12-05T13:53:19.973Z,65.41
2018-12-05T13:55:50.160Z,64.64
2018-12-05T13:58:20.214Z,64.87
2018-12-05T14:00:49.810Z,66.04
2018-12-05T14:03:19.246Z,65.54
2018-12-05T14:05:49.162Z,65.29
2018-12-05T14:08:18.623Z,64.41
2018-12-05T14:10:48.152Z,65.05
2018-12-05T14:13:18.410Z,65.38
2018-12-05T14:15:47.769Z,65.17
2018-12-05T14:18:17.265Z,65.18
2018-12-05T14:20:46.943Z,65.28
2018-12-05T14:23:16.457Z,64.74
2018-12-05T14:25:48.187Z,65.61
2018-12-05T14:28:17.926Z,65.25
2018-12-05T14:30:47.530Z,65.70
2018-12-05T14:33:17.119Z,65.05
2018-12-05T14:35:47.050Z,65.41
2018-12-05T14:38:16.419Z,65.09
2018-12-05T14:40:45.671Z,64.76
2018-12-05T14:43:15.426Z,64.60
2018-12-05T14:45:44.673Z,64.21
2018-12-05T14:48:14.260Z,64.42
2018-12-05T14:50:44.321Z,64.65
2018-12-05T14:53:13.942Z,64.83
2018-12-05T14:55:43.521Z,65.05
2018-12-05T14:58:13.486Z,64.23
2018-12-05T15:00:43.031Z,63.95
2018-12-05T15:03:12.693Z,63.80
2018-12-05T15:05:42.500Z,63.94
2018-12-05T15:08:12.025Z,63.91
2018-12-05T15:10:41.753Z,63.04
2018-12-05T15:13:11.042Z,63.07
2018-12-05T15:15:40.567Z,63.03
2018-12-05T15:18:10.181Z,62.48
2018-12-05T15:20:39.764Z,62.86
2018-12-05T15:23:09.480Z,62.18
2018-12-05T15:25:39.536Z,62.51
2018-12-05T15:28:09.137Z,61.91
2018-12-05T15:30:38.711Z,61.61
2018-12-05T15:33:08.592Z,61.16
2018-12-05T15:35:38.036Z,61.50
2018-12-05T15:38:07.514Z,61.26
2018-12-05T15:40:37.532Z,61.23
2018-12-05T15:43:06.954Z,61.86
2018-12-05T15:45:36.659Z,61.63
2018-12-05T15:50:47.098Z,61.28
2018-12-05T15:53:16.621Z,60.31
2018-12-05T15:55:46.364Z,60.47
2018-12-05T15:58:16.292Z,60.66
2018-12-05T16:00:46.110Z,60.54
2018-12-05T16:03:15.613Z,60.32
2018-12-05T16:05:45.451Z,60.01
2018-12-05T16:08:14.939Z,60.17
2018-12-05T16:10:44.602Z,60.04
2018-12-05T16:13:14.525Z,59.36
2018-12-05T16:15:44.257Z,60.12
2018-12-05T16:18:13.977Z,59.11
2018-12-05T16:20:43.588Z,59.35
2018-12-05T16:23:12.904Z,59.78
2018-12-05T16:25:42.452Z,59.41
2018-12-05T16:28:12.489Z,59.76
2018-12-05T16:30:41.897Z,59.37
2018-12-05T16:33:11.849Z,59.58
2018-12-05T16:35:41.791Z,59.51
2018-12-05T16:38:11.560Z,60.13
2018-12-05T16:40:41.323Z,60.19
2018-12-05T16:43:11.093Z,59.57
2018-12-05T16:45:40.706Z,59.96
2018-12-05T16:48:10.196Z,59.77
2018-12-05T16:50:41.402Z,59.60
2018-12-05T16:53:10.820Z,59.93
2018-12-05T16:55:40.440Z,59.43
2018-12-05T16:58:10.153Z,60.47
2018-12-05T17:00:39.883Z,60.88
2018-12-05T17:03:09.593Z,60.30
2018-12-05T17:05:39.474Z,61.24
2018-12-05T17:08:09.106Z,60.78
2018-12-05T17:10:38.794Z,61.76
2018-12-05T17:13:09.330Z,61.62
2018-12-05T17:15:39.059Z,61.82
2018-12-05T17:18:08.775Z,60.80
2018-12-05T17:20:38.256Z,61.84
2018-12-05T17:23:08.011Z,61.38
2018-12-05T17:25:37.661Z,61.10
2018-12-05T17:28:07.143Z,61.87
2018-12-05T17:30:36.664Z,61.71
2018-12-05T17:33:06.008Z,61.44
2018-12-05T17:35:36.153Z,62.22
2018-12-05T17:38:05.615Z,62.34
2018-12-05T17:40:35.273Z,61.79
2018-12-05T17:43:04.929Z,61.83
2018-12-05T17:45:34.504Z,60.76
2018-12-05T17:48:03.904Z,61.84
2018-12-05T17:50:34.084Z,61.66
2018-12-05T17:53:03.563Z,61.20
2018-12-05T17:55:33.246Z,61.47
2018-12-05T17:58:03.214Z,60.42
2018-12-05T18:00:32.706Z,61.08
2018-12-05T18:03:02.339Z,61.28
2018-12-05T18:05:32.116Z,61.32
2018-12-05T18:08:01.787Z,60.91
2018-12-05T18:10:31.251Z,60.48
2018-12-05T18:13:01.194Z,60.41
2018-12-05T18:15:30.768Z,60.46
2018-12-05T18:18:00.493Z,60.35
2018-12-05T18:20:30.234Z,60.21
2018-12-05T18:22:59.690Z,60.37
2018-12-05T18:25:29.501Z,60.08
2018-12-05T18:27:59.368Z,60.10
2018-12-05T18:30:28.946Z,60.33
2018-12-05T18:32:58.636Z,59.79
2018-12-05T18:35:28.741Z,60.43
2018-12-05T18:37:58.113Z,60.31
2018-12-05T18:40:27.422Z,59.63
2018-12-05T18:42:57.108Z,59.26
2018-12-05T18:45:26.703Z,60.54
2018-12-05T18:47:56.182Z,59.77
2018-12-05T18:50:26.462Z,60.53
2018-12-05T18:52:56.222Z,60.80
2018-12-05T18:55:25.900Z,60.66
2018-12-05T18:57:55.470Z,60.05
2018-12-05T19:00:24.956Z,60.31
2018-12-05T19:02:54.470Z,60.61
2018-12-05T19:05:24.501Z,60.67
2018-12-05T19:07:54.245Z,61.01
2018-12-05T19:10:23.787Z,60.80
2018-12-05T19:12:54.045Z,61.19
2018-12-05T19:15:24.201Z,60.61
2018-12-05T19:17:53.736Z,62.48
2018-12-05T19:20:23.872Z,61.64
2018-12-05T19:22:53.345Z,60.87
2018-12-05T19:25:22.963Z,60.36
2018-12-05T19:27:52.920Z,61.09
2018-12-05T19:30:22.504Z,61.71
2018-12-05T19:32:52.214Z,61.22
2018-12-05T19:35:21.832Z,61.22
2018-12-05T19:37:51.437Z,61.38
2018-12-05T19:40:21.164Z,61.44
2018-12-05T19:42:51.041Z,60.80
2018-12-05T19:45:20.668Z,60.97
2018-12-05T19:47:50.349Z,61.58
2018-12-05T19:50:20.051Z,61.67
2018-12-05T19:52:49.620Z,60.65
2018-12-05T19:55:19.256Z,61.66
2018-12-05T19:57:48.836Z,61.37
2018-12-05T20:00:18.371Z,61.65
2018-12-05T20:02:47.806Z,61.53
2018-12-05T20:05:17.817Z,61.71
2018-12-05T20:07:47.554Z,61.84
2018-12-05T20:10:17.285Z,62.09
2018-12-05T20:12:48.276Z,61.66
2018-12-05T20:15:17.708Z,61.89
2018-12-05T20:17:47.410Z,62.29
2018-12-05T20:20:17.237Z,62.32
2018-12-05T20:22:47.144Z,62.58
2018-12-05T20:25:16.955Z,62.96
2018-12-05T20:27:47.092Z,62.07
2018-12-05T20:30:16.791Z,62.25
2018-12-05T20:32:46.344Z,62.79
2018-12-05T20:35:16.226Z,63.09
2018-12-05T20:37:45.815Z,62.36
2018-12-05T20:40:16.123Z,62.52
2018-12-05T20:42:46.788Z,62.17
2018-12-05T20:45:17.863Z,62.59
2018-12-05T20:47:47.692Z,62.76
2018-12-05T20:50:19.123Z,62.98
2018-12-05T20:52:49.393Z,62.21
2018-12-05T20:55:19.011Z,63.04
2018-12-05T20:57:48.505Z,62.87
2018-12-05T21:00:18.183Z,62.90
2018-12-05T21:02:47.831Z,62.84
2018-12-05T21:05:17.406Z,62.92
2018-12-05T21:07:47.242Z,62.63
2018-12-05T21:10:16.860Z,62.66
2018-12-05T21:12:46.559Z,62.95
2018-12-05T21:15:16.339Z,62.81
2018-12-05T21:17:45.787Z,63.20
2018-12-05T21:20:15.453Z,63.41
2018-12-05T21:22:47.147Z,63.56
2018-12-05T21:25:14.813Z,63.19
2018-12-05T21:27:44.965Z,63.14
2018-12-05T21:30:14.665Z,63.42
2018-12-05T21:32:44.315Z,63.39
2018-12-05T21:35:14.228Z,63.45
2018-12-05T21:37:43.880Z,63.37
2018-12-05T21:40:13.397Z,62.96
2018-12-05T21:42:44.136Z,63.30
2018-12-05T21:45:14.452Z,62.99
2018-12-05T21:47:44.059Z,63.64
2018-12-05T21:50:13.999Z,63.80
2018-12-05T21:52:43.491Z,63.50
2018-12-05T21:55:13.040Z,63.45
2018-12-05T21:57:42.519Z,63.38
2018-12-05T22:00:13.066Z,63.74
2018-12-05T22:02:42.641Z,63.78
2018-12-05T22:05:12.593Z,63.35
2018-12-05T22:07:42.307Z,63.65
2018-12-05T22:10:12.023Z,63.77
2018-12-05T22:12:41.769Z,63.66
2018-12-05T22:15:11.204Z,63.68
2018-12-05T22:17:40.688Z,63.70
2018-12-05T22:20:10.933Z,63.27
2018-12-05T22:22:40.444Z,63.57
2018-12-05T22:25:10.044Z,63.72
2018-12-05T22:27:39.671Z,63.67
2018-12-05T22:30:09.812Z,62.71
2018-12-05T22:32:39.437Z,63.23
2018-12-05T22:35:09.656Z,62.35
2018-12-05T22:37:39.360Z,63.08
2018-12-05T22:40:09.694Z,62.63
2018-12-05T22:42:39.643Z,62.03
2018-12-05T22:45:09.299Z,62.41
2018-12-05T22:47:38.872Z,62.54
2018-12-05T22:50:09.209Z,63.08
2018-12-05T22:52:38.988Z,62.92
2018-12-05T22:55:08.538Z,63.14
2018-12-05T22:57:38.433Z,62.97
2018-12-05T23:00:10.120Z,62.71
2018-12-05T23:02:39.581Z,62.97
2018-12-05T23:05:09.290Z,63.07
2018-12-05T23:07:38.859Z,62.95
2018-12-05T23:10:08.871Z,62.58
2018-12-05T23:12:38.587Z,63.24
2018-12-05T23:15:08.261Z,62.86
2018-12-05T23:17:38.107Z,62.38
2018-12-05T23:20:08.061Z,62.97
2018-12-05T23:22:37.759Z,63.31
2018-12-05T23:25:07.923Z,62.60
2018-12-05T23:27:37.809Z,63.19
2018-12-05T23:30:07.617Z,62.84
2018-12-05T23:32:37.371Z,63.42
2018-12-05T23:35:06.841Z,63.72
2018-12-05T23:37:36.340Z,63.81
2018-12-05T23:40:06.188Z,63.47
2018-12-05T23:42:35.634Z,63.28
2018-12-05T23:45:05.099Z,64.41
2018-12-05T23:47:35.204Z,63.69
2018-12-05T23:50:04.824Z,64.16
2018-12-05T23:52:34.503Z,63.86
2018-12-05T23:55:03.984Z,63.87
2018-12-05T23:57:33.571Z,63.78
